Time;durP1;ratioP1;P1;durP2;ratioP2;P2;SDS_P1;SDS_P2;PMS_P1;PMS_P2;Temp;Humidity;BMP_temperature;BMP_pressure;BME280_temperature;BME280_humidity;BME280_pressure;Samples;Min_cycle;Max_cycle;Signal;HPM_P1;HPM_P2
2023/04/16 00:01:03;;;;;;;23.33;16.57;;;6.50;99.90;;;;;;5041097;28;20735;-80
2023/04/16 00:03:30;;;;;;;24.17;17.53;;;6.50;99.90;;;;;;5019415;28;20235;-80
2023/04/16 00:05:56;;;;;;;23.80;16.10;;;6.50;99.90;;;;;;5013662;28;20283;-80
2023/04/16 00:08:24;;;;;;;22.97;15.77;;;6.40;99.90;;;;;;5018703;28;20297;-80
2023/04/16 00:10:51;;;;;;;23.43;16.37;;;6.40;99.90;;;;;;5015808;28;20293;-79
2023/04/16 00:13:17;;;;;;;21.07;15.70;;;6.40;99.90;;;;;;5017847;28;20221;-80
2023/04/16 00:15:45;;;;;;;21.80;15.60;;;6.30;99.90;;;;;;5042942;28;20219;-80
2023/04/16 00:18:12;;;;;;;20.53;15.73;;;6.30;99.90;;;;;;5025024;28;20231;-80
2023/04/16 00:20:39;;;;;;;24.27;15.53;;;6.30;99.90;;;;;;5040566;28;20621;-80
2023/04/16 00:23:06;;;;;;;21.63;15.53;;;6.20;99.90;;;;;;5035926;28;20316;-80
2023/04/16 00:25:33;;;;;;;21.73;14.70;;;6.20;99.90;;;;;;5018016;28;20817;-80
2023/04/16 00:28:00;;;;;;;22.47;15.77;;;6.20;99.90;;;;;;5038132;28;20259;-80
2023/04/16 00:30:27;;;;;;;25.00;16.07;;;6.20;99.90;;;;;;5022957;28;20295;-80
2023/04/16 00:32:55;;;;;;;27.10;15.83;;;6.10;99.90;;;;;;5046039;28;20600;-81
2023/04/16 00:35:22;;;;;;;25.37;14.77;;;6.10;99.90;;;;;;5021785;28;20218;-80
2023/04/16 00:37:49;;;;;;;20.23;14.97;;;6.10;99.90;;;;;;5037082;28;20760;-80
2023/04/16 00:40:16;;;;;;;23.73;16.13;;;6.10;99.90;;;;;;5025407;28;20232;-81
2023/04/16 00:42:42;;;;;;;23.73;15.47;;;6.00;99.90;;;;;;5037261;28;20229;-80
2023/04/16 00:45:11;;;;;;;22.23;15.73;;;6.00;99.90;;;;;;5024057;28;20890;-81
2023/04/16 00:47:38;;;;;;;22.93;15.40;;;6.00;99.90;;;;;;5034774;28;20973;-80
2023/04/16 00:50:07;;;;;;;22.47;15.33;;;6.00;99.90;;;;;;5026055;28;20260;-80
2023/04/16 00:52:34;;;;;;;22.20;15.20;;;6.00;99.90;;;;;;5035621;28;20344;-80
2023/04/16 00:55:02;;;;;;;21.40;14.73;;;6.00;99.90;;;;;;5047701;28;20695;-80
2023/04/16 00:57:28;;;;;;;22.00;14.87;;;5.90;99.90;;;;;;5042432;28;20223;-81
2023/04/16 00:59:56;;;;;;;22.77;14.90;;;5.90;99.90;;;;;;5048323;28;20216;-80
2023/04/16 01:02:23;;;;;;;21.70;15.23;;;5.90;99.90;;;;;;5018930;28;20214;-79
2023/04/16 01:04:50;;;;;;;22.97;14.70;;;5.90;99.90;;;;;;5021573;28;20230;-80
2023/04/16 01:07:19;;;;;;;21.60;14.40;;;5.90;99.90;;;;;;5030128;28;20233;-80
2023/04/16 01:09:45;;;;;;;19.03;14.23;;;5.90;99.90;;;;;;5020801;28;20228;-80
2023/04/16 01:12:13;;;;;;;23.17;14.17;;;5.90;99.90;;;;;;5016926;28;20287;-79
2023/04/16 01:14:40;;;;;;;22.63;13.87;;;5.90;99.90;;;;;;5043169;28;20224;-80
2023/04/16 01:17:07;;;;;;;21.33;14.33;;;5.90;99.90;;;;;;5041415;28;20240;-80
2023/04/16 01:19:35;;;;;;;17.83;13.57;;;5.90;99.90;;;;;;5021795;28;20226;-80
2023/04/16 01:22:03;;;;;;;20.27;13.90;;;5.90;99.90;;;;;;5023975;28;20306;-80
2023/04/16 01:24:30;;;;;;;20.33;13.53;;;5.90;99.90;;;;;;5018989;28;20885;-80
2023/04/16 01:26:57;;;;;;;17.07;13.57;;;6.00;99.90;;;;;;5014734;28;20228;-81
2023/04/16 01:29:24;;;;;;;20.10;14.03;;;6.00;99.90;;;;;;5016302;28;20673;-80
2023/04/16 01:31:53;;;;;;;23.67;14.50;;;6.00;99.90;;;;;;5020541;28;20224;-80
2023/04/16 01:34:26;;;;;;;17.87;12.87;;;6.00;99.90;;;;;;5011227;28;20228;-80
2023/04/16 01:36:53;;;;;;;19.43;13.00;;;6.00;99.90;;;;;;5014445;28;20273;-81
2023/04/16 01:39:22;;;;;;;19.53;13.70;;;6.10;99.90;;;;;;5031804;28;20303;-79
2023/04/16 01:41:49;;;;;;;18.23;12.93;;;6.10;99.90;;;;;;5023850;28;20233;-79
2023/04/16 01:44:16;;;;;;;17.10;13.07;;;6.10;99.90;;;;;;5023229;28;20813;-79
2023/04/16 01:46:43;;;;;;;18.30;12.97;;;6.20;99.90;;;;;;5016181;28;20222;-80
2023/04/16 01:49:10;;;;;;;18.97;13.17;;;6.20;99.90;;;;;;5019494;28;20316;-80
2023/04/16 01:51:37;;;;;;;18.60;12.60;;;6.20;99.90;;;;;;5016962;28;20231;-81
2023/04/16 01:54:04;;;;;;;19.07;13.23;;;6.20;99.90;;;;;;5016987;28;21017;-80
2023/04/16 01:56:32;;;;;;;17.30;12.90;;;6.30;99.90;;;;;;5023479;28;20575;-80
2023/04/16 01:58:59;;;;;;;18.80;13.57;;;6.30;99.90;;;;;;5017405;28;20233;-81
2023/04/16 02:01:30;;;;;;;19.80;13.23;;;6.30;99.90;;;;;;5024509;28;20218;-79
2023/04/16 02:03:57;;;;;;;17.40;12.53;;;6.30;99.90;;;;;;5018100;28;20909;-79
2023/04/16 02:06:24;;;;;;;16.60;12.87;;;6.30;99.90;;;;;;5020787;28;20225;-79
2023/04/16 02:08:52;;;;;;;18.10;13.03;;;6.30;99.90;;;;;;5027946;28;20233;-79
2023/04/16 02:11:19;;;;;;;16.73;12.40;;;6.30;99.90;;;;;;5020503;28;20857;-80
2023/04/16 02:13:47;;;;;;;18.57;12.97;;;6.30;99.90;;;;;;5017426;28;20225;-79
2023/04/16 02:16:14;;;;;;;17.40;12.70;;;6.40;99.90;;;;;;5017705;28;20229;-80
2023/04/16 02:18:53;;;;;;;18.17;12.87;;;6.30;99.90;;;;;;5018195;28;20234;-79
2023/04/16 02:21:22;;;;;;;16.57;12.73;;;6.30;99.90;;;;;;5015743;28;20287;-79
2023/04/16 02:23:50;;;;;;;19.37;13.77;;;6.30;99.90;;;;;;5016485;28;20702;-80
2023/04/16 02:26:22;;;;;;;16.77;12.37;;;6.30;99.90;;;;;;5015750;28;20279;-79
2023/04/16 02:28:51;;;;;;;19.03;13.27;;;6.30;99.90;;;;;;5017827;28;20235;-80
2023/04/16 02:31:21;;;;;;;19.27;13.37;;;6.30;99.90;;;;;;5038439;28;20223;-82
2023/04/16 02:33:48;;;;;;;20.37;13.83;;;6.30;99.90;;;;;;5020668;28;20234;-82
2023/04/16 02:36:15;;;;;;;17.57;13.27;;;6.30;99.90;;;;;;5021321;28;20718;-82
2023/04/16 02:38:41;;;;;;;16.60;12.50;;;6.30;99.90;;;;;;5040480;28;20234;-82
2023/04/16 02:41:08;;;;;;;22.23;14.30;;;6.30;99.90;;;;;;5025336;28;20222;-82
2023/04/16 02:43:35;;;;;;;17.43;12.83;;;6.30;99.90;;;;;;5017480;28;20229;-80
2023/04/16 02:46:03;;;;;;;17.57;13.53;;;6.30;99.90;;;;;;5018409;28;20233;-80
2023/04/16 02:48:30;;;;;;;19.30;13.67;;;6.30;99.90;;;;;;5016932;28;20225;-80
2023/04/16 02:50:57;;;;;;;20.27;14.00;;;6.30;99.90;;;;;;5019848;28;20919;-80
2023/04/16 02:53:24;;;;;;;18.53;13.60;;;6.30;99.90;;;;;;5013676;28;20239;-80
2023/04/16 02:55:52;;;;;;;17.90;13.30;;;6.30;99.90;;;;;;5034868;28;20714;-79
2023/04/16 02:58:19;;;;;;;16.73;12.70;;;6.30;99.90;;;;;;5031983;28;20255;-79
2023/04/16 03:00:46;;;;;;;18.83;12.97;;;6.40;99.90;;;;;;5018501;28;20218;-79
2023/04/16 03:03:15;;;;;;;19.50;13.57;;;6.40;99.90;;;;;;5030814;28;20304;-79
2023/04/16 03:05:41;;;;;;;18.53;13.17;;;6.40;99.90;;;;;;5016070;28;20219;-79
2023/04/16 03:08:08;;;;;;;20.07;14.10;;;6.40;99.90;;;;;;5010405;28;20642;-79
2023/04/16 03:10:35;;;;;;;19.60;13.47;;;6.50;99.90;;;;;;5019475;28;20285;-79
2023/04/16 03:13:02;;;;;;;19.40;14.10;;;6.60;99.90;;;;;;5010453;28;20592;-79
2023/04/16 03:15:29;;;;;;;18.53;12.70;;;6.60;99.90;;;;;;5017890;28;20245;-79
2023/04/16 03:17:56;;;;;;;17.37;13.33;;;6.60;99.90;;;;;;5011685;28;20227;-79
2023/04/16 03:20:24;;;;;;;19.43;13.10;;;6.70;99.90;;;;;;5033122;28;20218;-79
2023/04/16 03:22:52;;;;;;;19.07;13.50;;;6.70;99.90;;;;;;5014530;28;20260;-78
2023/04/16 03:25:19;;;;;;;18.53;12.93;;;6.80;99.90;;;;;;5015443;28;20320;-79
2023/04/16 03:27:46;;;;;;;19.87;13.90;;;6.80;99.90;;;;;;5020114;28;20474;-79
2023/04/16 03:30:16;;;;;;;20.47;13.37;;;6.80;99.90;;;;;;5014764;28;20260;-79
2023/04/16 03:32:43;;;;;;;19.73;13.30;;;6.90;99.90;;;;;;5020879;28;20223;-79
2023/04/16 03:35:11;;;;;;;18.43;13.37;;;6.90;99.90;;;;;;5015175;28;20636;-79
2023/04/16 03:37:39;;;;;;;16.80;12.93;;;6.90;99.90;;;;;;5014349;28;20233;-79
2023/04/16 03:40:07;;;;;;;20.03;13.93;;;7.00;99.90;;;;;;5017428;28;20276;-79
2023/04/16 03:42:34;;;;;;;17.23;12.70;;;7.00;99.90;;;;;;5019845;28;20232;-79
2023/04/16 03:45:02;;;;;;;20.70;14.37;;;7.00;99.90;;;;;;5018110;28;20708;-79
2023/04/16 03:47:29;;;;;;;16.93;12.97;;;7.10;99.90;;;;;;5032943;28;20249;-79
2023/04/16 03:50:00;;;;;;;19.27;13.17;;;7.10;99.90;;;;;;5016655;28;20222;-79
2023/04/16 03:52:27;;;;;;;17.17;13.50;;;7.10;99.90;;;;;;5009781;28;20255;-79
2023/04/16 03:54:56;;;;;;;17.40;13.43;;;7.10;99.90;;;;;;5014516;28;20222;-80
2023/04/16 03:57:26;;;;;;;20.07;13.53;;;7.10;99.90;;;;;;5011971;28;20272;-79
2023/04/16 03:59:57;;;;;;;20.13;13.90;;;7.10;99.90;;;;;;5013239;28;20221;-78
2023/04/16 04:02:26;;;;;;;18.93;14.27;;;7.20;99.90;;;;;;5016853;28;20222;-78
2023/04/16 04:04:53;;;;;;;17.30;12.93;;;7.20;99.90;;;;;;5020092;28;20218;-79
2023/04/16 04:07:19;;;;;;;22.80;14.77;;;7.20;99.90;;;;;;5039425;28;20853;-79
2023/04/16 04:09:46;;;;;;;18.63;13.60;;;7.20;99.90;;;;;;5012889;28;20273;-79
2023/04/16 04:12:14;;;;;;;18.30;13.90;;;7.20;99.90;;;;;;5023585;28;20633;-78
2023/04/16 04:14:42;;;;;;;20.40;14.53;;;7.20;99.90;;;;;;5017093;28;20238;-80
2023/04/16 04:17:09;;;;;;;19.90;14.47;;;7.20;99.90;;;;;;5017183;28;20266;-79
2023/04/16 04:19:36;;;;;;;19.70;14.00;;;7.20;99.90;;;;;;5032415;28;20231;-79
2023/04/16 04:22:04;;;;;;;23.33;15.97;;;7.20;99.90;;;;;;5020526;28;20220;-80
2023/04/16 04:24:31;;;;;;;19.20;14.97;;;7.20;99.90;;;;;;5019045;28;20227;-79
2023/04/16 04:26:58;;;;;;;29.83;22.83;;;7.20;99.90;;;;;;5019378;28;20632;-80
2023/04/16 04:29:26;;;;;;;27.53;18.93;;;7.20;99.90;;;;;;5018174;28;20240;-78
2023/04/16 04:31:54;;;;;;;24.50;18.10;;;7.30;99.90;;;;;;5014743;28;20213;-79
2023/04/16 04:34:22;;;;;;;35.47;23.73;;;7.30;99.90;;;;;;5035589;28;20223;-81
2023/04/16 04:36:49;;;;;;;67.57;47.47;;;7.30;99.90;;;;;;5012864;28;20222;-82
2023/04/16 04:39:16;;;;;;;35.43;25.20;;;7.30;99.90;;;;;;5014010;28;20239;-82
2023/04/16 04:41:43;;;;;;;34.10;24.80;;;7.30;99.90;;;;;;5031103;28;20220;-82
2023/04/16 04:44:10;;;;;;;29.73;21.40;;;7.40;99.90;;;;;;5015238;28;20246;-80
2023/04/16 04:46:38;;;;;;;23.27;16.40;;;7.40;99.90;;;;;;5019879;28;20314;-79
2023/04/16 04:49:06;;;;;;;22.07;16.77;;;7.40;99.90;;;;;;5014469;28;20240;-81
2023/04/16 04:51:32;;;;;;;72.90;45.40;;;7.40;99.90;;;;;;5016358;28;20229;-83
2023/04/16 04:53:59;;;;;;;89.93;57.80;;;7.40;99.90;;;;;;5016948;28;20230;-80
2023/04/16 04:56:26;;;;;;;42.67;30.23;;;7.40;99.90;;;;;;5016735;28;20227;-83
2023/04/16 04:58:55;;;;;;;29.27;21.93;;;7.40;99.90;;;;;;5031701;28;20281;-80
2023/04/16 05:01:21;;;;;;;27.20;18.63;;;7.50;99.90;;;;;;5023712;28;20779;-82
2023/04/16 05:03:50;;;;;;;19.57;15.60;;;7.50;99.90;;;;;;5021850;28;20342;-79
2023/04/16 05:06:17;;;;;;;24.50;17.43;;;7.50;99.90;;;;;;5026128;28;20223;-81
2023/04/16 05:08:44;;;;;;;25.40;17.03;;;7.50;99.90;;;;;;5028538;28;20226;-83
2023/04/16 05:11:11;;;;;;;21.70;15.67;;;7.60;99.90;;;;;;5018674;28;20282;-80
2023/04/16 05:13:37;;;;;;;25.97;16.80;;;7.60;99.90;;;;;;5018831;28;20238;-81
2023/04/16 05:16:05;;;;;;;21.07;15.70;;;7.60;99.90;;;;;;5019852;28;20230;-80
2023/04/16 05:18:32;;;;;;;22.30;16.60;;;7.60;99.90;;;;;;5024331;28;20220;-80
2023/04/16 05:21:00;;;;;;;23.23;17.73;;;7.60;99.90;;;;;;5018822;28;20276;-80
2023/04/16 05:23:26;;;;;;;30.63;20.63;;;7.60;99.90;;;;;;5020200;28;20315;-80
2023/04/16 05:25:53;;;;;;;25.83;18.77;;;7.70;99.90;;;;;;5018492;28;20254;-80
2023/04/16 05:28:20;;;;;;;34.43;19.73;;;7.70;99.90;;;;;;5019528;28;20221;-82
2023/04/16 05:30:46;;;;;;;25.83;17.77;;;7.70;99.90;;;;;;5014634;28;21857;-79
2023/04/16 05:33:13;;;;;;;24.70;17.33;;;7.70;99.90;;;;;;5017241;28;20797;-78
2023/04/16 05:35:40;;;;;;;29.10;21.10;;;7.80;99.90;;;;;;5021902;28;20254;-81
2023/04/16 05:38:08;;;;;;;31.60;21.10;;;7.80;99.90;;;;;;5019637;28;20584;-78
2023/04/16 05:40:35;;;;;;;26.77;17.53;;;7.80;99.90;;;;;;5015527;28;20829;-81
2023/04/16 05:43:01;;;;;;;20.57;15.33;;;7.80;99.90;;;;;;5017206;28;20235;-77
2023/04/16 05:45:30;;;;;;;23.23;16.37;;;7.80;99.90;;;;;;5019639;28;20223;-83
2023/04/16 05:47:57;;;;;;;21.33;16.07;;;7.90;99.90;;;;;;5015834;28;20243;-83
2023/04/16 05:50:23;;;;;;;23.47;17.10;;;7.90;99.90;;;;;;5013851;28;20260;-80
2023/04/16 05:52:50;;;;;;;22.73;16.03;;;7.90;99.90;;;;;;5013425;28;20637;-78
2023/04/16 05:55:19;;;;;;;21.43;16.00;;;8.00;99.90;;;;;;5021025;28;20259;-80
2023/04/16 05:57:46;;;;;;;21.47;15.27;;;8.00;99.90;;;;;;5016358;28;20234;-81
2023/04/16 06:00:13;;;;;;;25.80;16.50;;;8.00;99.90;;;;;;5015904;28;20595;-83
2023/04/16 06:02:39;;;;;;;20.97;16.10;;;8.00;99.90;;;;;;4996931;28;21017;-86
2023/04/16 06:05:06;;;;;;;21.53;15.90;;;8.10;99.90;;;;;;5019873;28;20232;-80
2023/04/16 06:07:33;;;;;;;24.20;16.70;;;8.10;99.90;;;;;;5018772;28;20228;-79
2023/04/16 06:10:00;;;;;;;19.57;15.70;;;8.10;99.90;;;;;;5033841;28;20812;-79
2023/04/16 06:12:28;;;;;;;28.23;19.13;;;8.20;99.90;;;;;;5016579;28;20233;-79
2023/04/16 06:14:55;;;;;;;25.87;19.30;;;8.20;99.90;;;;;;5014178;28;20299;-79
2023/04/16 06:17:22;;;;;;;29.53;22.57;;;8.20;99.90;;;;;;5025401;28;20285;-80
2023/04/16 06:19:48;;;;;;;24.03;17.03;;;8.30;99.90;;;;;;5019675;28;20947;-82
2023/04/16 06:22:15;;;;;;;26.73;20.40;;;8.30;99.90;;;;;;5020971;28;20223;-80
2023/04/16 06:24:42;;;;;;;24.50;19.40;;;8.30;99.90;;;;;;5019359;28;20228;-80
2023/04/16 06:27:09;;;;;;;19.57;15.97;;;8.30;99.90;;;;;;5025055;28;20232;-80
2023/04/16 06:29:37;;;;;;;21.60;16.47;;;8.30;99.90;;;;;;5020526;28;20581;-81
2023/04/16 06:32:04;;;;;;;24.33;17.03;;;8.40;99.90;;;;;;5022343;28;20223;-80
2023/04/16 06:34:31;;;;;;;23.73;16.27;;;8.40;99.90;;;;;;5023472;28;20282;-82
2023/04/16 06:36:57;;;;;;;26.83;18.40;;;8.40;99.90;;;;;;5026365;28;20229;-80
2023/04/16 06:39:24;;;;;;;22.17;16.80;;;8.40;99.90;;;;;;5028054;28;20323;-78
2023/04/16 06:41:51;;;;;;;23.17;18.00;;;8.50;99.90;;;;;;5017710;28;20231;-82
2023/04/16 06:44:18;;;;;;;21.97;16.50;;;8.50;99.90;;;;;;5017391;28;20228;-78
2023/04/16 06:46:46;;;;;;;21.43;16.13;;;8.50;99.90;;;;;;5035975;28;20258;-79
2023/04/16 06:49:12;;;;;;;24.57;18.90;;;8.50;99.90;;;;;;5019446;28;20235;-78
2023/04/16 06:51:39;;;;;;;19.73;16.10;;;8.50;99.90;;;;;;5019255;28;20226;-78
2023/04/16 06:54:05;;;;;;;25.47;16.73;;;8.60;99.90;;;;;;5019162;28;20236;-78
2023/04/16 06:56:32;;;;;;;22.70;16.50;;;8.60;99.90;;;;;;5018255;28;20237;-78
2023/04/16 06:58:59;;;;;;;22.47;16.07;;;8.60;99.90;;;;;;5020217;28;20248;-77
2023/04/16 07:01:26;;;;;;;24.13;16.20;;;8.70;99.90;;;;;;5016739;28;20231;-80
2023/04/16 07:03:54;;;;;;;23.67;16.43;;;8.70;99.90;;;;;;5023547;28;20231;-79
2023/04/16 07:06:21;;;;;;;21.20;15.73;;;8.80;99.90;;;;;;5020310;28;20227;-80
2023/04/16 07:08:48;;;;;;;21.63;15.80;;;8.90;99.90;;;;;;5016678;28;20241;-82
2023/04/16 07:11:15;;;;;;;22.63;16.83;;;8.90;99.90;;;;;;5016819;28;20245;-79
2023/04/16 07:13:41;;;;;;;21.57;16.60;;;9.00;99.90;;;;;;5027712;28;20701;-79
2023/04/16 07:16:08;;;;;;;19.83;15.50;;;9.00;99.90;;;;;;5024720;28;20220;-81
2023/04/16 07:18:35;;;;;;;23.97;16.67;;;9.10;99.90;;;;;;5020643;28;20228;-79
2023/04/16 07:21:03;;;;;;;21.83;15.23;;;9.10;99.90;;;;;;5019408;28;20255;-78
2023/04/16 07:23:30;;;;;;;24.23;17.00;;;9.20;99.90;;;;;;5040096;28;20221;-79
2023/04/16 07:25:57;;;;;;;19.60;16.37;;;9.20;99.90;;;;;;5020931;28;20219;-79
2023/04/16 07:28:24;;;;;;;23.30;16.07;;;9.20;99.90;;;;;;5033021;28;20231;-78
2023/04/16 07:30:51;;;;;;;19.63;14.77;;;9.20;99.90;;;;;;5021990;28;20215;-83
2023/04/16 07:33:18;;;;;;;18.00;14.27;;;9.20;99.90;;;;;;5021140;28;20241;-78
2023/04/16 07:35:45;;;;;;;23.43;15.20;;;9.20;99.90;;;;;;5038579;28;20224;-79
2023/04/16 07:38:13;;;;;;;17.07;13.23;;;9.20;99.90;;;;;;5057716;28;20760;-80
2023/04/16 07:40:40;;;;;;;18.97;13.63;;;9.20;99.90;;;;;;5050361;28;20234;-79
2023/04/16 07:43:07;;;;;;;21.20;15.53;;;9.20;99.90;;;;;;5048513;28;20222;-79
2023/04/16 07:45:33;;;;;;;17.30;14.43;;;9.20;99.90;;;;;;5042545;28;20234;-78
2023/04/16 07:48:00;;;;;;;18.77;13.90;;;9.20;99.90;;;;;;5052202;28;20244;-80
2023/04/16 07:50:27;;;;;;;19.93;14.20;;;9.10;99.90;;;;;;5047710;28;20224;-79
2023/04/16 07:52:54;;;;;;;19.93;13.50;;;9.10;99.90;;;;;;5046295;28;20220;-79
2023/04/16 07:55:22;;;;;;;18.23;14.33;;;9.10;99.90;;;;;;5042408;28;20226;-79
2023/04/16 07:57:49;;;;;;;19.23;14.40;;;9.20;99.90;;;;;;5028103;28;20228;-80
2023/04/16 08:00:16;;;;;;;21.43;13.57;;;9.20;99.90;;;;;;5051164;28;20579;-80
2023/04/16 08:02:43;;;;;;;17.87;13.70;;;9.20;99.90;;;;;;5042235;28;20219;-81
2023/04/16 08:05:11;;;;;;;18.73;14.07;;;9.20;99.90;;;;;;5045811;28;20223;-81
2023/04/16 08:07:37;;;;;;;19.03;14.00;;;9.20;99.90;;;;;;5052959;28;20258;-80
2023/04/16 08:10:06;;;;;;;16.90;13.57;;;9.30;99.90;;;;;;5051304;28;20243;-78
2023/04/16 08:12:34;;;;;;;20.23;15.20;;;9.30;99.90;;;;;;5050508;28;20328;-78
2023/04/16 08:15:01;;;;;;;18.07;13.97;;;9.40;99.90;;;;;;5049646;28;20232;-78
2023/04/16 08:17:28;;;;;;;19.20;14.43;;;9.40;99.90;;;;;;5055676;28;20232;-79
2023/04/16 08:19:55;;;;;;;16.60;13.17;;;9.50;99.90;;;;;;5048635;28;20344;-79
2023/04/16 08:22:22;;;;;;;17.57;12.90;;;9.60;99.90;;;;;;5047571;28;20242;-81
2023/04/16 08:24:48;;;;;;;17.07;13.13;;;9.60;99.90;;;;;;5027658;28;20285;-79
2023/04/16 08:27:15;;;;;;;17.27;13.27;;;9.70;99.90;;;;;;5047217;28;20230;-78
2023/04/16 08:29:43;;;;;;;19.23;13.60;;;9.70;99.90;;;;;;5041414;28;20745;-79
2023/04/16 08:32:10;;;;;;;18.40;13.30;;;9.70;99.90;;;;;;5047534;28;20226;-79
2023/04/16 08:34:37;;;;;;;16.90;12.57;;;9.80;99.90;;;;;;5045404;28;20237;-78
2023/04/16 08:37:04;;;;;;;20.80;12.93;;;9.80;99.90;;;;;;5047372;28;20229;-82
2023/04/16 08:39:31;;;;;;;18.80;13.47;;;9.80;99.90;;;;;;5050063;28;20228;-79
2023/04/16 08:41:58;;;;;;;15.83;12.70;;;9.90;99.90;;;;;;5025672;28;20234;-80
2023/04/16 08:44:26;;;;;;;18.17;13.33;;;9.90;99.90;;;;;;5042618;28;20312;-78
2023/04/16 08:46:57;;;;;;;15.50;12.37;;;10.00;99.90;;;;;;5045558;28;21006;-79
2023/04/16 08:49:25;;;;;;;17.87;12.87;;;10.00;99.90;;;;;;5026908;28;20236;-84
2023/04/16 08:51:53;;;;;;;17.03;12.80;;;10.00;99.90;;;;;;5044749;28;20227;-80
2023/04/16 08:54:34;;;;;;;21.43;13.23;;;10.10;99.90;;;;;;5048201;28;20230;-79
2023/04/16 08:57:05;;;;;;;15.70;12.47;;;10.20;99.90;;;;;;5021362;28;20228;-81
2023/04/16 08:59:33;;;;;;;15.27;12.30;;;10.20;99.90;;;;;;5044147;28;20224;-78
2023/04/16 09:02:01;;;;;;;16.43;12.83;;;10.30;99.90;;;;;;5045482;28;20729;-80
2023/04/16 09:04:29;;;;;;;16.00;12.63;;;10.30;99.90;;;;;;5040541;28;20220;-79
2023/04/16 09:06:56;;;;;;;14.83;11.83;;;10.30;99.90;;;;;;5045221;28;20227;-81
2023/04/16 09:09:23;;;;;;;17.20;12.20;;;10.40;99.90;;;;;;5024528;28;20215;-80
2023/04/16 09:11:51;;;;;;;16.53;12.57;;;10.40;99.90;;;;;;5044691;28;20227;-79
2023/04/16 09:14:18;;;;;;;16.50;11.90;;;10.40;99.90;;;;;;5047375;28;20694;-78
2023/04/16 09:16:46;;;;;;;16.30;12.53;;;10.50;99.90;;;;;;5028427;28;20227;-79
2023/04/16 09:19:15;;;;;;;16.93;13.03;;;10.50;99.90;;;;;;5048627;28;20222;-78
2023/04/16 09:21:45;;;;;;;18.93;12.60;;;10.50;99.90;;;;;;5050159;28;20240;-78
2023/04/16 09:24:12;;;;;;;15.70;12.37;;;10.50;99.90;;;;;;5042206;28;20220;-79
2023/04/16 09:26:39;;;;;;;16.20;13.27;;;10.50;99.90;;;;;;5048510;28;20224;-78
2023/04/16 09:29:06;;;;;;;15.20;11.70;;;10.50;99.90;;;;;;5051413;28;20235;-80
2023/04/16 09:31:32;;;;;;;15.93;11.93;;;10.60;99.90;;;;;;5024326;28;20217;-79
2023/04/16 09:34:03;;;;;;;15.97;13.37;;;10.70;99.90;;;;;;5044131;28;20232;-79
2023/04/16 09:36:32;;;;;;;20.33;16.27;;;10.80;99.90;;;;;;5032631;28;20231;-79
2023/04/16 09:38:59;;;;;;;14.53;12.63;;;10.90;99.90;;;;;;5022645;28;20282;-80
2023/04/16 09:41:28;;;;;;;15.20;11.57;;;11.10;99.90;;;;;;5042366;28;20717;-78
2023/04/16 09:43:56;;;;;;;15.17;11.67;;;11.20;99.90;;;;;;5045997;28;20222;-79
2023/04/16 09:46:23;;;;;;;15.97;11.33;;;11.30;99.90;;;;;;5047911;28;20216;-79
2023/04/16 09:48:50;;;;;;;17.40;11.33;;;11.50;99.90;;;;;;5049772;28;20277;-79
2023/04/16 09:51:17;;;;;;;15.97;10.97;;;11.60;99.90;;;;;;5038255;28;20223;-78
2023/04/16 09:53:45;;;;;;;15.63;11.67;;;11.60;99.90;;;;;;5041386;28;20226;-79
2023/04/16 09:56:12;;;;;;;13.00;10.47;;;11.60;99.90;;;;;;5043198;28;20215;-83
2023/04/16 09:58:39;;;;;;;14.87;11.00;;;11.60;99.90;;;;;;5027509;28;20314;-79
2023/04/16 10:01:08;;;;;;;14.43;10.20;;;11.60;99.90;;;;;;5049096;28;20604;-79
2023/04/16 10:03:36;;;;;;;13.97;11.33;;;11.60;99.90;;;;;;5035758;28;20312;-80
2023/04/16 10:06:08;;;;;;;14.97;10.73;;;11.60;99.90;;;;;;5012632;28;20234;-80
2023/04/16 10:08:34;;;;;;;15.83;11.60;;;11.50;99.90;;;;;;5042442;28;20234;-80
2023/04/16 10:11:06;;;;;;;13.30;10.40;;;11.60;99.90;;;;;;5030018;28;20237;-78
2023/04/16 10:13:33;;;;;;;16.27;10.90;;;11.60;99.90;;;;;;5033066;28;20230;-80
2023/04/16 10:16:00;;;;;;;12.70;10.87;;;11.60;99.90;;;;;;5044522;28;21595;-78
2023/04/16 10:18:28;;;;;;;13.80;10.80;;;11.60;99.90;;;;;;5040582;28;20955;-80
2023/04/16 10:20:55;;;;;;;12.57;10.07;;;11.70;99.90;;;;;;5037656;28;20218;-81
2023/04/16 10:23:22;;;;;;;10.57;9.20;;;11.70;99.90;;;;;;5036250;28;20222;-79
2023/04/16 10:25:49;;;;;;;16.77;13.23;;;11.60;99.90;;;;;;5044770;28;20235;-80
2023/04/16 10:28:17;;;;;;;12.60;10.27;;;11.50;99.90;;;;;;5042975;28;20872;-79
2023/04/16 10:30:51;;;;;;;13.20;10.63;;;11.40;99.90;;;;;;5045304;28;20691;-81
2023/04/16 10:33:20;;;;;;;11.63;9.63;;;11.30;99.90;;;;;;5045925;28;20310;-79
2023/04/16 10:35:47;;;;;;;13.13;10.30;;;11.20;99.90;;;;;;5039519;28;20909;-79
2023/04/16 10:38:27;;;;;;;14.60;11.80;;;11.20;99.90;;;;;;5040502;28;20908;-79
2023/04/16 10:41:02;;;;;;;13.40;10.90;;;11.10;99.90;;;;;;5049135;28;20337;-79
2023/04/16 10:43:31;;;;;;;13.77;11.00;;;11.20;99.90;;;;;;5047352;28;20226;-78
2023/04/16 10:45:57;;;;;;;15.23;10.60;;;11.20;99.90;;;;;;5042240;28;20215;-78
2023/04/16 10:48:24;;;;;;;14.77;11.40;;;11.10;99.90;;;;;;5027823;28;20237;-82
2023/04/16 10:50:56;;;;;;;14.00;11.10;;;11.20;99.90;;;;;;5029907;28;20701;-79
2023/04/16 10:53:25;;;;;;;15.67;10.93;;;11.20;99.90;;;;;;5042738;28;20223;-79
2023/04/16 10:55:57;;;;;;;16.10;12.17;;;11.20;99.90;;;;;;5009317;28;20318;-79
2023/04/16 10:58:27;;;;;;;16.03;11.10;;;11.20;99.90;;;;;;5030784;28;20248;-79
2023/04/16 11:00:58;;;;;;;16.40;12.77;;;11.30;99.90;;;;;;5049815;28;20228;-85
2023/04/16 11:03:25;;;;;;;12.60;10.70;;;11.30;99.90;;;;;;5039620;28;20230;-80
2023/04/16 11:05:52;;;;;;;14.33;11.30;;;11.30;99.90;;;;;;5042394;28;20820;-79
2023/04/16 11:08:18;;;;;;;13.57;10.67;;;11.20;99.90;;;;;;5013344;28;20238;-79
2023/04/16 11:10:45;;;;;;;13.93;11.20;;;11.30;99.90;;;;;;5022057;28;20227;-81
2023/04/16 11:13:13;;;;;;;17.40;11.13;;;11.20;99.90;;;;;;5022102;28;20226;-81
2023/04/16 11:15:39;;;;;;;14.30;11.40;;;11.20;99.90;;;;;;5016719;28;20307;-83
2023/04/16 11:18:08;;;;;;;14.03;11.60;;;11.10;99.90;;;;;;5024485;28;20243;-78
2023/04/16 11:20:35;;;;;;;13.70;10.73;;;11.10;99.90;;;;;;5028416;28;20224;-79
2023/04/16 11:23:02;;;;;;;13.60;10.67;;;11.10;99.90;;;;;;5014929;28;20332;-80
2023/04/16 11:25:30;;;;;;;17.33;11.70;;;11.00;99.90;;;;;;5040817;28;20758;-80
2023/04/16 11:27:57;;;;;;;16.63;11.70;;;11.00;99.90;;;;;;5028772;28;20317;-81
2023/04/16 11:30:30;;;;;;;16.23;11.23;;;11.00;99.90;;;;;;5052414;28;20323;-81
2023/04/16 11:32:56;;;;;;;13.87;11.10;;;11.00;99.90;;;;;;5023418;28;20771;-81
2023/04/16 11:35:25;;;;;;;16.40;10.37;;;11.00;99.90;;;;;;5045572;28;20606;-82
2023/04/16 11:37:56;;;;;;;12.30;10.03;;;11.00;99.90;;;;;;5054549;28;20232;-79
2023/04/16 11:40:24;;;;;;;14.70;9.90;;;11.00;99.90;;;;;;5042714;28;20273;-79
2023/04/16 11:42:50;;;;;;;12.60;10.23;;;11.00;99.90;;;;;;5047069;28;20871;-80
2023/04/16 11:45:18;;;;;;;12.43;10.17;;;11.00;99.90;;;;;;5049440;28;20234;-80
2023/04/16 11:47:46;;;;;;;11.70;9.73;;;10.90;99.90;;;;;;5050522;28;20225;-79
2023/04/16 11:50:20;;;;;;;12.60;10.13;;;11.00;99.90;;;;;;5056218;28;20654;-79
2023/04/16 11:52:49;;;;;;;11.87;9.57;;;11.00;99.90;;;;;;5029297;28;20229;-80
2023/04/16 11:55:18;;;;;;;15.57;10.20;;;11.00;99.90;;;;;;5046379;28;20228;-83
2023/04/16 11:57:45;;;;;;;12.87;9.40;;;11.10;99.90;;;;;;5045898;28;20225;-80
2023/04/16 12:00:13;;;;;;;11.43;10.23;;;11.10;99.90;;;;;;5053125;28;20225;-81
2023/04/16 12:02:41;;;;;;;14.73;10.03;;;11.20;99.90;;;;;;5049815;28;20226;-80
2023/04/16 12:05:26;;;;;;;13.20;10.37;;;11.20;99.90;;;;;;5037568;28;20720;-80
2023/04/16 12:07:54;;;;;;;15.70;10.63;;;11.20;99.90;;;;;;5025627;28;20225;-80
2023/04/16 12:10:21;;;;;;;12.30;10.07;;;11.20;99.90;;;;;;5047636;28;20221;-79
2023/04/16 12:12:48;;;;;;;15.93;10.93;;;11.20;99.90;;;;;;5041678;28;20224;-78
2023/04/16 12:15:14;;;;;;;15.73;10.87;;;11.30;99.90;;;;;;5042453;28;20237;-82
2023/04/16 12:17:41;;;;;;;14.20;10.93;;;11.30;99.90;;;;;;5048027;28;20607;-78
2023/04/16 12:20:10;;;;;;;13.30;10.73;;;11.30;99.90;;;;;;5046369;28;20230;-79
2023/04/16 12:22:38;;;;;;;13.83;10.37;;;11.30;99.90;;;;;;5042528;28;20227;-78
2023/04/16 12:25:10;;;;;;;14.00;11.20;;;11.30;99.90;;;;;;5039849;28;20320;-80
2023/04/16 12:27:45;;;;;;;17.03;11.07;;;11.30;99.90;;;;;;5022398;28;20282;-82
2023/04/16 12:30:13;;;;;;;13.63;10.80;;;11.30;99.90;;;;;;5041909;28;20937;-78
2023/04/16 12:32:41;;;;;;;13.80;10.20;;;11.40;99.90;;;;;;5048945;28;20397;-79
2023/04/16 12:35:08;;;;;;;12.27;10.03;;;11.30;99.90;;;;;;5051047;28;20228;-79